Time;durP1;ratioP1;P1;durP2;ratioP2;P2;SDS_P1;SDS_P2;PMS_P1;PMS_P2;Temp;Humidity;BMP_temperature;BMP_pressure;BME280_temperature;BME280_humidity;BME280_pressure;Samples;Min_cycle;Max_cycle;Signal;HPM_P1;HPM_P2
2022/11/11 00:00:08;;;;;;;5.82;5.20;;;17.40;85.10;;;;;;4978612;28;20219;-69
2022/11/11 00:02:57;;;;;;;5.95;4.93;;;17.40;84.80;;;;;;4993301;28;20200;-69
2022/11/11 00:05:42;;;;;;;6.38;5.13;;;17.40;84.80;;;;;;4993217;28;20208;-69
2022/11/11 00:08:26;;;;;;;6.28;5.03;;;17.40;85.10;;;;;;4985338;28;20231;-69
2022/11/11 00:11:13;;;;;;;7.47;5.05;;;17.40;85.00;;;;;;4998038;28;20179;-69
2022/11/11 00:13:57;;;;;;;6.22;5.32;;;17.40;84.80;;;;;;5011976;28;20239;-69
2022/11/11 00:25:52;;;;;;;5.85;5.13;;;17.40;84.80;;;;;;5012760;28;20707;-69
2022/11/11 00:28:36;;;;;;;7.28;5.60;;;17.40;84.70;;;;;;5011308;28;20215;-68
2022/11/11 00:31:21;;;;;;;7.03;5.22;;;17.40;84.60;;;;;;4997762;28;20187;-69
2022/11/11 00:34:05;;;;;;;5.65;4.95;;;17.30;84.60;;;;;;4997735;28;20250;-69
2022/11/11 00:36:49;;;;;;;5.88;4.72;;;17.30;84.70;;;;;;5012890;28;20226;-68
2022/11/11 00:39:34;;;;;;;5.50;4.80;;;17.40;84.80;;;;;;4985407;28;20200;-69
2022/11/11 00:42:18;;;;;;;6.63;5.03;;;17.40;84.40;;;;;;5005865;28;20195;-69
2022/11/11 00:45:03;;;;;;;6.55;5.00;;;17.40;84.30;;;;;;4992175;28;20215;-70
2022/11/11 00:50:57;;;;;;;6.57;5.20;;;17.30;84.70;;;;;;4992654;28;20223;-70
2022/11/11 00:53:41;;;;;;;6.25;5.53;;;17.30;84.60;;;;;;5011971;28;20211;-69
2022/11/11 00:56:26;;;;;;;5.55;4.57;;;17.30;84.30;;;;;;4997446;28;20218;-69
2022/11/11 00:59:10;;;;;;;5.10;4.22;;;17.30;84.20;;;;;;4997390;28;20191;-69
2022/11/11 01:01:55;;;;;;;6.60;5.07;;;17.30;84.30;;;;;;5007849;28;20216;-69
2022/11/11 01:04:39;;;;;;;5.93;4.95;;;17.30;84.50;;;;;;4994521;28;20287;-69
2022/11/11 01:07:23;;;;;;;5.28;4.55;;;17.30;84.50;;;;;;5001350;28;20238;-69
2022/11/11 01:10:09;;;;;;;5.57;4.65;;;17.30;84.20;;;;;;4996760;28;20187;-69
2022/11/11 01:13:10;;;;;;;5.10;4.38;;;17.30;84.00;;;;;;4996460;28;20184;-69
2022/11/11 01:16:05;;;;;;;7.30;5.10;;;17.40;84.10;;;;;;4996534;28;20278;-69
2022/11/11 01:18:52;;;;;;;6.68;4.90;;;17.40;84.60;;;;;;4996448;28;20223;-69
2022/11/11 01:21:36;;;;;;;4.97;4.50;;;17.30;84.30;;;;;;4981721;28;20215;-69
2022/11/11 01:24:21;;;;;;;6.57;4.28;;;17.30;83.90;;;;;;4981566;28;20582;-68
2022/11/11 01:27:05;;;;;;;5.22;4.40;;;17.30;83.90;;;;;;4996222;28;20227;-69
2022/11/11 01:29:49;;;;;;;5.05;4.05;;;17.30;83.90;;;;;;4996269;28;20224;-69
2022/11/11 01:32:33;;;;;;;4.78;4.30;;;17.30;84.30;;;;;;4981468;28;20273;-69
2022/11/11 01:35:18;;;;;;;4.75;4.30;;;17.30;84.10;;;;;;4996092;28;20251;-69
2022/11/11 01:38:03;;;;;;;4.28;3.80;;;17.30;83.90;;;;;;4998544;28;20199;-67
2022/11/11 01:40:48;;;;;;;5.65;3.85;;;17.30;83.60;;;;;;5002736;28;20275;-69
2022/11/11 01:43:33;;;;;;;4.88;3.83;;;17.30;83.80;;;;;;4996064;28;20215;-69
2022/11/11 01:46:36;;;;;;;4.88;3.83;;;17.30;83.90;;;;;;4996083;28;20283;-69
2022/11/11 01:49:28;;;;;;;5.25;4.13;;;17.30;84.00;;;;;;4995605;28;20271;-69
2022/11/11 01:52:35;;;;;;;5.25;4.00;;;17.30;83.80;;;;;;4994910;28;20719;-68
2022/11/11 01:55:24;;;;;;;5.28;4.03;;;17.30;83.50;;;;;;4995810;28;20191;-69
2022/11/11 01:58:14;;;;;;;4.32;3.83;;;17.30;83.70;;;;;;4981366;28;20227;-69
2022/11/11 02:01:00;;;;;;;4.45;3.83;;;17.30;83.80;;;;;;4980969;28;20197;-69
2022/11/11 02:06:58;;;;;;;4.30;3.67;;;17.30;83.30;;;;;;5030642;23;20256;-66
2022/11/11 02:09:47;;;;;;;4.97;4.20;;;17.30;83.00;;;;;;5033991;28;20195;-67
2022/11/11 02:15:36;;;;;;;4.28;3.70;;;17.30;83.50;;;;;;5034871;28;20179;-67
2022/11/11 02:18:20;;;;;;;4.57;3.50;;;17.30;83.10;;;;;;5034241;28;20301;-67
2022/11/11 02:21:05;;;;;;;4.13;3.72;;;17.30;84.10;;;;;;5019455;28;20190;-67
2022/11/11 02:24:07;;;;;;;4.03;3.63;;;17.30;83.40;;;;;;5019489;28;20182;-68
2022/11/11 02:26:55;;;;;;;3.58;3.28;;;17.30;83.70;;;;;;5034383;28;20217;-67
2022/11/11 02:29:42;;;;;;;3.83;3.25;;;17.30;83.40;;;;;;5019114;28;20202;-67
2022/11/11 02:32:26;;;;;;;3.58;2.92;;;17.30;83.30;;;;;;5019404;28;20233;-67
2022/11/11 02:35:24;;;;;;;3.72;3.30;;;17.30;83.10;;;;;;5034233;28;20210;-68
2022/11/11 02:38:12;;;;;;;4.18;3.40;;;17.30;83.60;;;;;;5034100;28;20752;-67
2022/11/11 02:44:00;;;;;;;3.50;2.92;;;17.30;83.20;;;;;;5034210;28;20218;-67
2022/11/11 02:46:44;;;;;;;4.10;3.30;;;17.30;83.20;;;;;;5033991;28;20254;-67
2022/11/11 02:49:29;;;;;;;3.25;2.88;;;17.30;83.10;;;;;;5033684;28;20206;-67
2022/11/11 02:52:13;;;;;;;3.97;3.45;;;17.30;83.30;;;;;;5034018;28;20629;-67
2022/11/11 02:54:57;;;;;;;3.78;3.10;;;17.30;83.20;;;;;;5034172;28;20209;-67
2022/11/11 02:57:42;;;;;;;3.75;3.00;;;17.20;82.90;;;;;;5018915;28;20248;-67
2022/11/11 03:00:26;;;;;;;3.33;3.03;;;17.30;82.90;;;;;;5018597;28;20198;-67
2022/11/11 03:03:10;;;;;;;3.47;2.80;;;17.30;82.90;;;;;;5033806;28;20179;-68
2022/11/11 03:05:55;;;;;;;3.78;2.75;;;17.30;83.10;;;;;;5033748;28;20190;-67
2022/11/11 03:08:39;;;;;;;3.60;3.00;;;17.20;83.20;;;;;;5033508;28;20230;-67
2022/11/11 03:11:26;;;;;;;3.58;3.15;;;17.20;83.00;;;;;;5019056;28;20210;-67
2022/11/11 03:14:11;;;;;;;3.53;3.22;;;17.20;82.80;;;;;;5018655;28;20178;-67
2022/11/11 03:21:03;;;;;;;3.92;2.92;;;17.30;82.50;;;;;;5033476;28;20237;-67
2022/11/11 03:23:13;;;;;;;3.97;3.30;;;17.30;83.00;;;;;;5033572;28;20249;-67
2022/11/11 03:25:57;;;;;;;4.20;2.78;;;17.30;82.70;;;;;;5018344;28;20226;-67
2022/11/11 03:28:41;;;;;;;3.45;2.78;;;17.20;82.50;;;;;;5032484;28;20214;-67
2022/11/11 03:31:26;;;;;;;2.88;2.55;;;17.20;82.70;;;;;;5018337;28;20178;-67
2022/11/11 03:34:19;;;;;;;3.40;3.10;;;17.30;83.00;;;;;;5019062;28;20182;-67
2022/11/11 03:40:11;;;;;;;3.00;2.63;;;17.20;82.30;;;;;;5034018;28;20241;-68
2022/11/11 03:42:55;;;;;;;3.13;2.83;;;17.20;82.40;;;;;;5032628;28;20300;-67
2022/11/11 03:45:41;;;;;;;4.25;2.95;;;17.30;82.90;;;;;;5018256;28;20202;-67
2022/11/11 03:48:29;;;;;;;3.50;2.85;;;17.30;82.70;;;;;;5016511;28;20225;-67
2022/11/11 03:51:13;;;;;;;3.80;2.78;;;17.20;82.60;;;;;;5017856;28;20186;-67
2022/11/11 03:53:57;;;;;;;3.10;2.80;;;17.20;82.20;;;;;;5018084;28;20206;-67
2022/11/11 03:56:41;;;;;;;3.25;2.80;;;17.20;82.10;;;;;;5017929;28;20241;-67
2022/11/11 03:59:26;;;;;;;3.53;3.00;;;17.20;82.40;;;;;;5017756;28;20226;-67
2022/11/11 04:11:39;;;;;;;3.45;2.50;;;17.20;81.90;;;;;;5027607;28;20221;-67
2022/11/11 04:17:27;;;;;;;2.92;2.53;;;17.20;82.00;;;;;;5032326;28;20222;-67
2022/11/11 04:23:14;;;;;;;2.50;2.30;;;17.20;82.20;;;;;;5032710;28;20241;-67
2022/11/11 04:26:02;;;;;;;2.78;2.53;;;17.20;82.20;;;;;;5032401;28;20193;-67
2022/11/11 04:34:56;;;;;;;3.92;2.80;;;17.20;82.10;;;;;;5032188;28;20201;-67
2022/11/11 04:37:48;;;;;;;3.10;2.80;;;17.20;82.20;;;;;;5032326;28;20214;-66
2022/11/11 04:45:26;;;;;;;3.10;2.60;;;17.20;81.50;;;;;;5036438;28;20177;-67
2022/11/11 04:46:40;;;;;;;2.60;2.40;;;17.20;82.10;;;;;;5028472;28;20299;-67
2022/11/11 04:49:24;;;;;;;2.70;2.50;;;17.20;81.70;;;;;;5016344;28;20765;-67
2022/11/11 04:52:27;;;;;;;3.20;2.33;;;17.20;81.60;;;;;;5016799;28;20215;-67
2022/11/11 04:58:18;;;;;;;2.88;2.20;;;17.20;81.60;;;;;;5016246;28;20215;-67
2022/11/11 05:01:02;;;;;;;3.20;2.08;;;17.20;81.80;;;;;;5001527;28;20183;-67
2022/11/11 05:03:46;;;;;;;3.10;2.55;;;17.20;81.50;;;;;;5016269;28;20184;-67
2022/11/11 05:09:34;;;;;;;2.85;2.45;;;17.20;81.60;;;;;;5032110;28;20241;-66
2022/11/11 05:12:18;;;;;;;3.55;2.60;;;17.20;81.60;;;;;;5001586;28;20180;-67
2022/11/11 05:21:19;;;;;;;2.88;2.15;;;17.20;81.60;;;;;;5016006;28;20242;-67
2022/11/11 05:27:08;;;;;;;3.88;2.40;;;17.20;81.60;;;;;;5015938;28;20242;-68
2022/11/11 05:29:52;;;;;;;2.40;2.20;;;17.20;81.50;;;;;;5015440;28;20176;-66
2022/11/11 05:32:38;;;;;;;2.30;2.10;;;17.20;81.40;;;;;;5000821;28;20180;-67
2022/11/11 05:35:22;;;;;;;2.58;2.22;;;17.20;81.50;;;;;;5001051;28;20175;-68
2022/11/11 05:38:22;;;;;;;2.85;2.42;;;17.20;81.50;;;;;;5005068;28;20226;-67
2022/11/11 05:41:07;;;;;;;2.60;2.40;;;17.20;81.40;;;;;;5021101;28;20233;-69
2022/11/11 05:43:52;;;;;;;2.63;2.20;;;17.20;81.20;;;;;;5034343;28;20178;-68
2022/11/11 05:46:36;;;;;;;2.22;2.03;;;17.10;81.00;;;;;;5034235;28;20296;-68
2022/11/11 05:49:21;;;;;;;2.25;2.05;;;17.20;81.20;;;;;;5033961;28;20233;-69
2022/11/11 05:52:06;;;;;;;3.00;2.20;;;17.10;81.10;;;;;;5033612;28;20274;-68
2022/11/11 05:54:51;;;;;;;3.45;2.30;;;17.20;81.50;;;;;;5034976;28;20186;-69
2022/11/11 05:57:35;;;;;;;2.63;2.30;;;17.20;81.00;;;;;;5034897;28;20271;-68
2022/11/11 06:00:19;;;;;;;2.25;2.05;;;17.10;80.90;;;;;;5037268;28;20186;-68
2022/11/11 06:03:05;;;;;;;2.30;2.10;;;17.20;80.90;;;;;;5035546;28;20205;-68
2022/11/11 06:05:49;;;;;;;2.78;2.47;;;17.10;81.00;;;;;;5020636;28;20222;-69
2022/11/11 06:08:33;;;;;;;2.83;2.40;;;17.10;81.00;;;;;;5026837;28;20246;-68
2022/11/11 06:11:18;;;;;;;2.88;2.60;;;17.20;81.00;;;;;;5019485;28;20599;-68
2022/11/11 06:14:03;;;;;;;2.38;2.17;;;17.20;81.00;;;;;;5022037;28;20276;-67
2022/11/11 06:16:47;;;;;;;2.53;2.33;;;17.10;80.70;;;;;;5039459;28;20253;-67
2022/11/11 06:19:31;;;;;;;2.55;2.30;;;17.10;80.80;;;;;;5018588;28;20218;-67
2022/11/11 06:22:54;;;;;;;2.53;2.30;;;17.10;80.90;;;;;;5018455;28;20206;-68
2022/11/11 06:28:27;;;;;;;3.95;2.88;;;17.10;80.70;;;;;;5033147;28;20599;-68
2022/11/11 06:31:16;;;;;;;2.47;2.20;;;17.10;80.70;;;;;;5017893;28;20225;-67
2022/11/11 06:34:00;;;;;;;2.60;2.40;;;17.10;80.90;;;;;;5033263;28;20245;-68
2022/11/11 06:36:44;;;;;;;2.70;2.50;;;17.10;80.90;;;;;;5018386;28;20298;-67
2022/11/11 06:39:28;;;;;;;2.70;2.50;;;17.10;80.70;;;;;;5033080;28;20281;-68
2022/11/11 06:42:13;;;;;;;3.88;2.70;;;17.10;80.30;;;;;;5018491;28;20278;-67
2022/11/11 06:44:57;;;;;;;2.47;2.25;;;17.10;80.50;;;;;;5009031;28;20230;-68
2022/11/11 06:47:41;;;;;;;2.67;2.33;;;17.10;80.70;;;;;;5013854;28;20269;-67
2022/11/11 06:50:27;;;;;;;2.70;2.50;;;17.20;80.70;;;;;;4998764;28;20199;-68
2022/11/11 06:53:16;;;;;;;2.65;2.25;;;17.10;80.60;;;;;;4998878;28;20199;-68
2022/11/11 06:56:01;;;;;;;2.80;2.53;;;17.10;80.50;;;;;;5013677;28;20191;-67
2022/11/11 06:58:45;;;;;;;2.85;2.10;;;17.10;80.30;;;;;;5013766;28;20690;-68
2022/11/11 07:01:30;;;;;;;2.90;2.53;;;17.20;80.30;;;;;;4998641;28;20239;-67
2022/11/11 07:04:14;;;;;;;2.70;2.40;;;17.10;80.40;;;;;;4997695;28;20202;-67
2022/11/11 07:06:58;;;;;;;2.67;2.33;;;17.10;80.60;;;;;;5013355;28;20222;-67
2022/11/11 07:09:42;;;;;;;2.60;2.40;;;17.10;80.40;;;;;;4998318;28;20258;-68
2022/11/11 07:12:27;;;;;;;3.08;2.40;;;17.10;80.30;;;;;;4998480;28;20203;-68
2022/11/11 07:15:12;;;;;;;2.63;2.33;;;17.10;80.30;;;;;;5013415;28;20179;-68
2022/11/11 07:17:56;;;;;;;3.10;2.75;;;17.10;80.30;;;;;;4998675;28;20331;-67
2022/11/11 07:20:41;;;;;;;2.60;2.40;;;17.10;80.30;;;;;;4998158;28;20198;-69
2022/11/11 07:23:25;;;;;;;2.50;2.30;;;17.20;80.50;;;;;;4998344;28;20199;-68
2022/11/11 07:26:10;;;;;;;3.13;2.60;;;17.20;80.30;;;;;;4998453;28;20207;-68
2022/11/11 07:28:54;;;;;;;2.72;2.47;;;17.10;80.10;;;;;;5013103;28;20303;-68
2022/11/11 07:31:38;;;;;;;2.85;2.47;;;17.10;80.00;;;;;;4998006;28;20199;-68
2022/11/11 07:34:23;;;;;;;3.90;2.60;;;17.20;80.20;;;;;;4998344;28;20207;-67
2022/11/11 07:37:07;;;;;;;7.18;2.72;;;17.20;80.30;;;;;;4998152;28;20223;-68
2022/11/11 07:39:51;;;;;;;2.83;2.58;;;17.20;80.20;;;;;;4997663;28;20199;-67
2022/11/11 07:42:41;;;;;;;2.63;2.42;;;17.20;80.10;;;;;;5012923;28;20210;-68
2022/11/11 07:45:25;;;;;;;2.70;2.50;;;17.20;80.10;;;;;;5013140;28;20207;-67
2022/11/11 07:48:09;;;;;;;2.53;2.20;;;17.20;80.00;;;;;;5034679;28;20330;-67
2022/11/11 07:50:53;;;;;;;3.42;2.70;;;17.20;80.20;;;;;;5031324;28;20249;-68
2022/11/11 07:53:38;;;;;;;3.00;2.70;;;17.20;80.10;;;;;;5031584;28;20194;-67
2022/11/11 07:56:22;;;;;;;3.22;2.78;;;17.20;80.00;;;;;;5032457;28;20192;-67
2022/11/11 07:59:06;;;;;;;3.25;2.95;;;17.20;80.00;;;;;;5032352;28;20230;-68
2022/11/11 08:01:51;;;;;;;3.45;2.85;;;17.20;80.70;;;;;;5033233;28;20198;-68
2022/11/11 08:04:35;;;;;;;3.83;2.80;;;17.20;79.90;;;;;;5052198;28;20200;-68
2022/11/11 08:07:20;;;;;;;4.32;2.75;;;17.20;80.00;;;;;;5074568;23;20244;-70
2022/11/11 08:10:05;;;;;;;2.88;2.45;;;17.20;79.90;;;;;;5064802;28;20216;-70
2022/11/11 08:15:58;;;;;;;3.00;2.70;;;17.20;79.90;;;;;;5051967;28;20217;-70
2022/11/11 08:18:42;;;;;;;3.55;2.40;;;17.20;80.00;;;;;;5049159;28;20217;-70
2022/11/11 08:21:27;;;;;;;2.67;2.40;;;17.20;79.90;;;;;;5051735;28;20229;-70
2022/11/11 08:24:11;;;;;;;3.08;2.78;;;17.20;79.90;;;;;;5042604;28;20203;-70
2022/11/11 08:26:55;;;;;;;3.05;2.55;;;17.20;79.90;;;;;;5031987;28;20249;-70
2022/11/11 08:29:40;;;;;;;2.80;2.60;;;17.20;79.90;;;;;;5030696;28;20272;-70
2022/11/11 08:32:24;;;;;;;2.70;2.40;;;17.20;79.70;;;;;;5030924;28;20249;-70
2022/11/11 08:35:08;;;;;;;3.38;3.08;;;17.20;79.90;;;;;;5032014;28;20281;-70
2022/11/11 08:37:54;;;;;;;3.63;2.75;;;17.20;80.00;;;;;;5030826;28;20214;-70
2022/11/11 08:40:39;;;;;;;2.58;2.38;;;17.20;79.90;;;;;;5031656;28;20189;-68
2022/11/11 08:43:25;;;;;;;3.10;2.80;;;17.20;79.90;;;;;;5032117;28;20198;-70
2022/11/11 08:46:10;;;;;;;3.38;2.63;;;17.30;79.90;;;;;;5030762;28;20219;-70
2022/11/11 08:48:55;;;;;;;2.78;2.53;;;17.30;80.00;;;;;;5031655;28;20642;-71
2022/11/11 08:51:39;;;;;;;2.53;2.33;;;17.30;79.90;;;;;;5033942;28;20194;-71
2022/11/11 08:54:24;;;;;;;3.00;2.70;;;17.30;79.90;;;;;;5030839;28;20186;-71
2022/11/11 08:57:08;;;;;;;3.83;2.90;;;17.30;80.00;;;;;;5031857;28;20218;-71
2022/11/11 08:59:53;;;;;;;3.33;2.60;;;17.30;79.90;;;;;;5031529;28;20198;-70
2022/11/11 09:02:37;;;;;;;3.15;2.85;;;17.30;79.90;;;;;;5030669;28;20205;-71
2022/11/11 09:05:22;;;;;;;3.20;2.90;;;17.30;80.00;;;;;;5031636;28;20263;-71
2022/11/11 09:08:07;;;;;;;3.38;2.90;;;17.30;80.10;;;;;;5031597;28;20275;-71
2022/11/11 09:10:52;;;;;;;4.43;2.97;;;17.30;80.20;;;;;;5030356;28;20221;-70
2022/11/11 09:13:36;;;;;;;3.15;2.85;;;17.30;80.20;;;;;;5030557;28;20198;-71
2022/11/11 09:16:20;;;;;;;3.40;3.10;;;17.30;80.20;;;;;;5031522;28;20257;-71
2022/11/11 09:19:05;;;;;;;2.70;2.50;;;17.30;80.30;;;;;;5031488;28;20284;-71
2022/11/11 09:21:52;;;;;;;3.40;3.10;;;17.30;80.20;;;;;;5031138;28;20202;-71
2022/11/11 09:24:37;;;;;;;4.10;3.40;;;17.30;80.30;;;;;;5031415;28;20619;-71
2022/11/11 09:27:21;;;;;;;3.00;2.72;;;17.30;80.40;;;;;;5031691;28;20274;-71
2022/11/11 09:30:07;;;;;;;3.92;3.35;;;17.30;80.50;;;;;;5033945;28;20191;-70
2022/11/11 09:32:52;;;;;;;4.00;3.13;;;17.30;80.50;;;;;;5034137;28;20259;-71
2022/11/11 09:35:37;;;;;;;3.40;3.10;;;17.30;80.60;;;;;;5034026;28;20198;-68
2022/11/11 09:38:21;;;;;;;3.70;3.30;;;17.40;80.70;;;;;;5034858;28;20222;-68
2022/11/11 09:41:21;;;;;;;3.30;3.00;;;17.40;80.80;;;;;;5053163;28;20279;-68
2022/11/11 09:44:37;;;;;;;3.72;3.28;;;17.40;80.90;;;;;;5053883;28;20201;-68
2022/11/11 09:47:50;;;;;;;3.63;3.25;;;17.40;80.90;;;;;;5053825;28;20264;-68
2022/11/11 09:50:39;;;;;;;3.80;2.83;;;17.40;81.10;;;;;;5067714;28;20259;-68
2022/11/11 09:53:37;;;;;;;4.35;3.28;;;17.40;81.10;;;;;;5054638;28;20202;-68
2022/11/11 09:56:25;;;;;;;4.03;3.60;;;17.40;81.20;;;;;;5068003;28;20244;-68
2022/11/11 09:59:23;;;;;;;3.40;3.10;;;17.40;81.20;;;;;;5054640;28;20190;-68
2022/11/11 10:02:21;;;;;;;4.00;3.30;;;17.40;81.30;;;;;;5053588;28;20727;-68
2022/11/11 10:05:23;;;;;;;3.33;2.90;;;17.40;81.40;;;;;;5054371;28;20190;-68
2022/11/11 10:08:28;;;;;;;3.20;2.90;;;17.40;81.40;;;;;;5054301;28;20310;-68
2022/11/11 10:11:28;;;;;;;3.00;2.70;;;17.40;81.30;;;;;;5053235;28;20197;-68
2022/11/11 10:14:13;;;;;;;2.85;2.55;;;17.50;81.50;;;;;;5053360;28;20206;-68
2022/11/11 10:17:36;;;;;;;3.22;2.92;;;17.50;81.70;;;;;;5054381;28;20213;-68
2022/11/11 10:20:31;;;;;;;3.17;2.78;;;17.50;81.70;;;;;;5053913;28;20304;-68
2022/11/11 10:23:32;;;;;;;2.72;2.53;;;17.50;81.70;;;;;;5053381;28;20247;-68
2022/11/11 10:26:39;;;;;;;3.13;2.83;;;17.50;81.90;;;;;;5054074;28;20189;-68
2022/11/11 10:29:38;;;;;;;2.55;2.35;;;17.50;81.90;;;;;;5035092;28;20226;-68
2022/11/11 10:32:31;;;;;;;3.65;2.30;;;17.50;81.90;;;;;;5033310;28;20191;-68
2022/11/11 10:35:26;;;;;;;2.75;2.40;;;17.50;81.90;;;;;;5033116;28;20680;-68
2022/11/11 10:38:21;;;;;;;2.50;2.30;;;17.50;81.90;;;;;;5033958;28;20210;-68
2022/11/11 10:41:29;;;;;;;2.50;2.30;;;17.50;81.90;;;;;;5033588;28;20214;-67
2022/11/11 10:44:30;;;;;;;2.85;2.45;;;17.50;81.90;;;;;;5032823;28;20194;-68
2022/11/11 10:47:36;;;;;;;2.85;2.53;;;17.50;81.90;;;;;;5033643;28;20321;-68
2022/11/11 10:50:40;;;;;;;2.47;2.28;;;17.50;82.00;;;;;;5035693;28;20282;-68
2022/11/11 10:53:52;;;;;;;2.90;2.70;;;17.50;81.90;;;;;;5033574;28;20264;-68
2022/11/11 10:56:48;;;;;;;2.83;2.60;;;17.50;81.90;;;;;;5032498;28;20210;-68
2022/11/11 11:00:02;;;;;;;2.33;2.13;;;17.50;81.90;;;;;;5032453;28;20189;-68
2022/11/11 11:03:13;;;;;;;2.47;2.28;;;17.50;81.90;;;;;;5033436;28;20174;-68
2022/11/11 11:06:22;;;;;;;2.97;2.10;;;17.50;81.90;;;;;;5032399;28;20217;-68
2022/11/11 11:09:13;;;;;;;2.17;1.98;;;17.50;81.90;;;;;;5033335;28;20249;-68
2022/11/11 11:12:12;;;;;;;2.33;2.10;;;17.50;81.90;;;;;;5032119;28;20190;-68
2022/11/11 11:15:05;;;;;;;2.30;2.10;;;17.60;82.00;;;;;;5033183;28;20194;-68
2022/11/11 11:18:04;;;;;;;2.33;2.00;;;17.50;81.90;;;;;;5033043;28;20214;-68
2022/11/11 11:20:56;;;;;;;2.88;2.15;;;17.50;82.00;;;;;;5032876;28;20313;-68
2022/11/11 11:23:44;;;;;;;2.00;1.88;;;17.50;81.90;;;;;;5032013;28;20217;-67
2022/11/11 11:26:48;;;;;;;1.80;1.70;;;17.50;81.90;;;;;;5032019;28;20286;-68
2022/11/11 11:29:38;;;;;;;1.92;1.77;;;17.50;81.90;;;;;;5032904;28;20725;-68
2022/11/11 11:32:31;;;;;;;1.92;1.77;;;17.50;82.20;;;;;;5032376;28;20186;-68
2022/11/11 11:35:44;;;;;;;2.00;1.73;;;17.60;82.00;;;;;;5032021;28;20206;-70
2022/11/11 11:38:46;;;;;;;2.00;1.80;;;17.60;82.00;;;;;;5025378;28;20268;-71
2022/11/11 11:41:41;;;;;;;1.90;1.80;;;17.60;82.40;;;;;;5062903;28;20321;-71
2022/11/11 11:44:34;;;;;;;1.95;1.77;;;17.50;82.00;;;;;;5051957;28;20190;-71
2022/11/11 11:48:11;;;;;;;1.65;1.55;;;17.50;82.20;;;;;;5051804;28;20221;-71
2022/11/11 11:51:31;;;;;;;1.90;1.73;;;17.50;82.30;;;;;;5032863;28;20217;-71
2022/11/11 11:54:54;;;;;;;2.00;1.50;;;17.50;81.90;;;;;;5052736;28;20197;-71
2022/11/11 11:57:52;;;;;;;1.95;1.77;;;17.60;82.20;;;;;;5031828;28;20226;-71
2022/11/11 12:01:06;;;;;;;1.73;1.63;;;17.60;82.00;;;;;;5049767;28;20661;-71
2022/11/11 12:04:19;;;;;;;1.70;1.60;;;17.50;81.90;;;;;;5052743;28;20713;-71
2022/11/11 12:07:37;;;;;;;2.38;1.90;;;17.60;82.30;;;;;;5051173;28;20221;-71
2022/11/11 12:10:47;;;;;;;2.45;1.95;;;17.60;82.00;;;;;;5044970;28;20232;-71
2022/11/11 12:14:02;;;;;;;1.98;1.80;;;17.60;82.20;;;;;;5052565;28;20177;-71
2022/11/11 12:17:10;;;;;;;1.70;1.60;;;17.60;82.50;;;;;;5052695;28;20233;-71
2022/11/11 12:20:39;;;;;;;1.70;1.60;;;17.60;82.00;;;;;;5051324;28;20186;-71
2022/11/11 12:24:04;;;;;;;1.95;1.75;;;17.60;82.30;;;;;;5031313;28;20236;-71
2022/11/11 12:27:06;;;;;;;2.28;2.08;;;17.60;82.30;;;;;;5050742;28;20753;-71
2022/11/11 12:30:10;;;;;;;1.90;1.80;;;17.60;82.00;;;;;;5051228;28;20228;-71
2022/11/11 12:33:37;;;;;;;1.70;1.60;;;17.60;82.50;;;;;;5032339;28;20182;-71
2022/11/11 12:36:42;;;;;;;2.00;1.73;;;17.60;82.00;;;;;;5040300;28;20189;-71
2022/11/11 12:39:39;;;;;;;1.70;1.60;;;17.60;82.50;;;;;;5051477;28;20265;-71
2022/11/11 12:43:03;;;;;;;1.98;1.60;;;17.60;82.50;;;;;;5051145;28;20201;-70
2022/11/11 12:46:18;;;;;;;1.85;1.50;;;17.60;82.60;;;;;;5051121;28;20181;-70
2022/11/11 12:49:35;;;;;;;1.95;1.70;;;17.60;82.50;;;;;;5051267;28;20241;-71
2022/11/11 12:53:08;;;;;;;1.80;1.70;;;17.70;82.40;;;;;;5051020;28;20173;-70
2022/11/11 12:56:26;;;;;;;2.03;1.70;;;17.60;82.00;;;;;;5051167;28;20178;-70
2022/11/11 12:59:57;;;;;;;1.67;1.58;;;17.60;82.30;;;;;;5051091;28;20177;-71
2022/11/11 13:03:09;;;;;;;1.52;1.42;;;17.70;82.10;;;;;;5054055;28;20228;-71
2022/11/11 13:06:17;;;;;;;1.90;1.80;;;17.70;82.60;;;;;;5055935;28;20182;-70
2022/11/11 13:09:43;;;;;;;1.80;1.70;;;17.60;82.20;;;;;;5054874;28;20221;-70
2022/11/11 13:12:45;;;;;;;1.70;1.60;;;17.70;82.30;;;;;;5054912;28;20197;-67
2022/11/11 13:15:29;;;;;;;2.10;1.90;;;17.70;82.20;;;;;;5054861;28;20291;-68
2022/11/11 13:18:28;;;;;;;2.10;1.83;;;17.70;82.30;;;;;;5054788;28;20700;-68
2022/11/11 13:21:28;;;;;;;1.95;1.58;;;17.70;82.10;;;;;;5055626;28;20224;-68
2022/11/11 13:24:19;;;;;;;2.28;1.50;;;17.70;82.50;;;;;;5054924;28;20193;-68
2022/11/11 13:27:37;;;;;;;2.05;1.83;;;17.70;82.60;;;;;;5054872;28;20249;-67
2022/11/11 13:30:50;;;;;;;1.60;1.50;;;17.70;82.30;;;;;;5055022;28;20318;-67
2022/11/11 13:33:49;;;;;;;2.42;1.45;;;17.70;82.60;;;;;;5051160;28;20200;-68
2022/11/11 13:36:47;;;;;;;1.67;1.58;;;17.70;82.50;;;;;;5048283;28;20194;-66
2022/11/11 13:39:59;;;;;;;1.70;1.60;;;17.70;82.40;;;;;;5051979;28;20197;-68
2022/11/11 13:42:51;;;;;;;1.80;1.70;;;17.70;82.80;;;;;;5055584;28;20204;-68
2022/11/11 13:45:40;;;;;;;1.80;1.42;;;17.70;82.70;;;;;;5052009;28;20264;-68
2022/11/11 13:48:47;;;;;;;1.65;1.55;;;17.70;82.50;;;;;;5034487;28;20717;-68
2022/11/11 13:51:42;;;;;;;1.70;1.60;;;17.70;82.60;;;;;;5034225;28;20558;-68
2022/11/11 13:54:33;;;;;;;1.50;1.40;;;17.70;82.70;;;;;;5034660;28;20186;-68
2022/11/11 13:57:22;;;;;;;1.50;1.40;;;17.70;82.80;;;;;;5045280;28;20240;-68
2022/11/11 14:00:31;;;;;;;1.50;1.40;;;17.70;82.80;;;;;;5053890;28;20189;-68
2022/11/11 14:03:19;;;;;;;2.22;1.50;;;17.70;82.70;;;;;;5068303;28;20185;-68
2022/11/11 14:06:15;;;;;;;1.60;1.50;;;17.70;83.00;;;;;;5055032;28;20225;-68
2022/11/11 14:09:01;;;;;;;1.60;1.48;;;17.70;82.90;;;;;;5083022;22;20241;-68
2022/11/11 14:11:45;;;;;;;1.98;1.50;;;17.70;82.90;;;;;;5035026;28;20206;-68
2022/11/11 14:14:35;;;;;;;1.70;1.48;;;17.70;82.90;;;;;;5034348;28;20253;-68
2022/11/11 14:17:20;;;;;;;2.83;1.52;;;17.70;83.00;;;;;;5034651;28;20544;-68
2022/11/11 14:20:40;;;;;;;1.55;1.45;;;17.70;83.20;;;;;;5033682;28;20237;-68
2022/11/11 14:23:42;;;;;;;1.52;1.42;;;17.70;83.40;;;;;;5033714;28;20183;-68
2022/11/11 14:26:28;;;;;;;2.30;1.73;;;17.70;83.50;;;;;;5033602;28;20237;-68
2022/11/11 14:29:19;;;;;;;1.92;1.73;;;17.70;84.40;;;;;;5033251;28;20226;-68
2022/11/11 14:32:18;;;;;;;1.67;1.45;;;17.70;83.50;;;;;;5032945;28;20249;-68
2022/11/11 14:35:19;;;;;;;1.83;1.58;;;17.70;83.50;;;;;;5033674;28;20211;-68
2022/11/11 14:38:14;;;;;;;1.40;1.30;;;17.70;83.60;;;;;;5034377;28;20592;-68
2022/11/11 14:41:40;;;;;;;1.58;1.48;;;17.70;83.70;;;;;;5033161;28;20217;-68
2022/11/11 14:44:33;;;;;;;2.03;1.90;;;17.70;83.80;;;;;;5033603;28;20187;-68
2022/11/11 14:47:30;;;;;;;1.70;1.50;;;17.70;83.80;;;;;;5033262;28;20255;-68
2022/11/11 14:50:29;;;;;;;1.60;1.50;;;17.70;83.90;;;;;;5033335;28;20178;-68
2022/11/11 14:53:23;;;;;;;1.70;1.60;;;17.70;84.80;;;;;;5033398;28;20199;-68
2022/11/11 14:56:16;;;;;;;1.70;1.60;;;17.70;84.30;;;;;;5033047;28;20198;-68
2022/11/11 14:59:07;;;;;;;1.55;1.45;;;17.70;84.10;;;;;;5033965;28;20214;-69
2022/11/11 15:01:54;;;;;;;2.08;1.58;;;17.70;84.20;;;;;;5032807;28;20198;-68
2022/11/11 15:04:39;;;;;;;1.48;1.38;;;17.70;84.30;;;;;;5035735;28;20201;-67
2022/11/11 15:07:41;;;;;;;3.13;1.77;;;17.70;84.10;;;;;;5032832;28;20206;-68
2022/11/11 15:10:57;;;;;;;2.03;1.52;;;17.70;84.20;;;;;;5033530;28;20593;-67
2022/11/11 15:14:00;;;;;;;1.80;1.70;;;17.70;84.20;;;;;;5033633;28;20183;-68
2022/11/11 15:17:40;;;;;;;1.60;1.50;;;17.70;84.30;;;;;;5032740;28;20174;-69
2022/11/11 15:20:52;;;;;;;2.60;1.55;;;17.70;84.30;;;;;;5032474;28;20297;-68
2022/11/11 15:23:56;;;;;;;2.00;1.67;;;17.70;84.40;;;;;;5032203;28;20198;-68
2022/11/11 15:26:53;;;;;;;1.85;1.63;;;17.70;84.40;;;;;;5030240;28;20202;-68
2022/11/11 15:30:10;;;;;;;2.00;1.90;;;17.70;84.40;;;;;;5031980;28;20226;-68
2022/11/11 15:33:16;;;;;;;1.70;1.60;;;17.70;84.50;;;;;;5030808;28;20233;-68
2022/11/11 15:36:29;;;;;;;2.05;1.85;;;17.70;84.50;;;;;;5033357;28;20190;-68
2022/11/11 15:39:18;;;;;;;3.25;2.30;;;17.70;84.50;;;;;;5033311;28;20230;-68
2022/11/11 15:42:03;;;;;;;2.40;1.92;;;17.70;84.60;;;;;;5032838;28;20268;-69
2022/11/11 15:44:47;;;;;;;2.08;1.80;;;17.70;84.60;;;;;;5033070;28;20234;-68
2022/11/11 15:47:35;;;;;;;1.98;1.85;;;17.70;84.60;;;;;;5032239;28;20297;-68
2022/11/11 15:50:22;;;;;;;2.88;2.03;;;17.70;84.60;;;;;;5032755;28;20214;-68
2022/11/11 15:53:12;;;;;;;2.17;1.98;;;17.70;84.70;;;;;;5031944;28;20228;-68
2022/11/11 15:55:59;;;;;;;2.70;2.10;;;17.60;85.40;;;;;;5032918;28;20218;-68
2022/11/11 15:58:43;;;;;;;2.60;2.13;;;17.60;84.50;;;;;;5031849;28;20218;-68
2022/11/11 16:01:28;;;;;;;2.17;1.98;;;17.70;84.50;;;;;;5044443;28;20198;-68
2022/11/11 16:04:22;;;;;;;2.15;1.95;;;17.70;84.60;;;;;;5026081;28;20187;-68
2022/11/11 16:07:22;;;;;;;2.55;2.35;;;17.70;84.80;;;;;;5031764;28;20186;-68
2022/11/11 16:10:27;;;;;;;2.83;2.63;;;17.70;84.80;;;;;;5031474;28;20265;-71
2022/11/11 16:13:23;;;;;;;2.35;2.15;;;17.60;84.60;;;;;;5031763;28;20270;-68